createdAt,value
2023-10-25T00:00:53.620Z,9.57
2023-10-25T00:03:21.686Z,9.67
2023-10-25T00:05:51.214Z,9.60
2023-10-25T00:08:18.888Z,9.64
2023-10-25T00:10:47.102Z,9.60
2023-10-25T00:13:15.202Z,9.61
2023-10-25T00:15:43.172Z,9.61
2023-10-25T00:18:11.259Z,9.61
2023-10-25T00:20:39.331Z,9.64
2023-10-25T00:23:08.708Z,9.74
2023-10-25T00:25:36.913Z,9.87
2023-10-25T00:28:05.353Z,9.88
2023-10-25T00:30:33.538Z,10.22
2023-10-25T00:33:01.521Z,10.38
2023-10-25T00:35:29.772Z,10.43
2023-10-25T00:37:57.685Z,10.55
2023-10-25T00:40:27.254Z,10.66
2023-10-25T00:43:00.205Z,10.64
2023-10-25T00:45:29.757Z,10.64
2023-10-25T00:47:58.043Z,10.69
2023-10-25T00:50:26.128Z,10.71
2023-10-25T00:52:54.130Z,10.84
2023-10-25T00:55:22.004Z,10.74
2023-10-25T00:57:50.712Z,10.79
2023-10-25T01:00:18.624Z,10.71
2023-10-25T01:02:46.828Z,10.80
2023-10-25T01:05:16.582Z,10.83
2023-10-25T01:07:44.997Z,10.85
2023-10-25T01:10:13.100Z,10.90
2023-10-25T01:12:42.446Z,11.03
2023-10-25T01:15:14.009Z,10.93
2023-10-25T01:17:42.086Z,10.91
2023-10-25T01:20:10.426Z,10.84
2023-10-25T01:22:39.838Z,10.85
2023-10-25T01:25:08.149Z,10.76
2023-10-25T01:27:36.212Z,10.66
2023-10-25T01:30:04.552Z,10.73
2023-10-25T01:32:32.586Z,10.79
2023-10-25T01:35:00.511Z,10.77
2023-10-25T01:37:28.502Z,10.80
2023-10-25T01:39:57.741Z,10.63
2023-10-25T01:42:25.936Z,10.67
2023-10-25T01:44:54.252Z,10.61
2023-10-25T01:47:22.474Z,10.73
2023-10-25T01:49:51.980Z,10.60
2023-10-25T01:52:19.877Z,10.55
2023-10-25T01:54:51.953Z,10.60
2023-10-25T01:57:21.544Z,10.55
2023-10-25T01:59:49.426Z,10.60
2023-10-25T02:02:17.923Z,10.66
2023-10-25T02:04:46.267Z,10.70
2023-10-25T02:07:14.234Z,10.56
2023-10-25T02:09:42.900Z,10.59
2023-10-25T02:12:10.933Z,10.56
2023-10-25T02:14:40.543Z,10.52
2023-10-25T02:17:08.461Z,10.57
2023-10-25T02:19:36.391Z,10.53
2023-10-25T02:22:04.708Z,10.64
2023-10-25T02:24:32.766Z,10.49
2023-10-25T02:27:01.664Z,10.56
2023-10-25T02:29:29.858Z,10.85
2023-10-25T02:31:59.080Z,10.93
2023-10-25T02:34:27.238Z,10.94
2023-10-25T02:36:55.870Z,11.10
2023-10-25T02:39:24.938Z,11.04
2023-10-25T02:41:52.979Z,10.85
2023-10-25T02:44:21.668Z,10.74
2023-10-25T02:46:49.840Z,10.61
2023-10-25T02:49:19.302Z,10.84
2023-10-25T02:51:47.388Z,10.69
2023-10-25T02:54:15.245Z,10.83
2023-10-25T02:56:43.312Z,10.96
2023-10-25T02:59:11.828Z,10.80
2023-10-25T03:01:40.172Z,10.66
2023-10-25T03:04:08.329Z,10.61
2023-10-25T03:06:37.991Z,10.61
2023-10-25T03:09:07.065Z,10.57
2023-10-25T03:11:34.928Z,10.39
2023-10-25T03:14:02.981Z,10.30
2023-10-25T03:16:31.140Z,10.33
2023-10-25T03:18:59.098Z,10.26
2023-10-25T03:21:27.295Z,10.23
2023-10-25T03:23:56.532Z,10.18
2023-10-25T03:26:24.697Z,10.13
2023-10-25T03:28:53.331Z,10.22
2023-10-25T03:31:21.297Z,10.13
2023-10-25T03:33:49.741Z,10.09
2023-10-25T03:36:18.249Z,10.32
2023-10-25T03:38:46.271Z,10.22
2023-10-25T03:41:15.524Z,10.20
2023-10-25T03:43:43.411Z,10.20
2023-10-25T03:46:11.712Z,10.20
2023-10-25T03:48:40.729Z,10.28
2023-10-25T03:51:10.861Z,10.33
2023-10-25T03:53:40.271Z,10.36
2023-10-25T03:56:07.992Z,10.23
2023-10-25T03:58:37.229Z,10.16
2023-10-25T04:01:09.582Z,10.18
2023-10-25T04:03:39.746Z,10.13
2023-10-25T04:06:09.412Z,10.06
2023-10-25T04:08:37.467Z,9.97
2023-10-25T04:11:05.587Z,9.98
2023-10-25T04:13:34.104Z,10.02
2023-10-25T04:16:05.077Z,10.03
2023-10-25T04:18:34.773Z,9.98
2023-10-25T04:21:03.626Z,9.98
2023-10-25T04:23:32.813Z,10.05
2023-10-25T04:26:07.600Z,10.01
2023-10-25T04:28:35.799Z,10.03
2023-10-25T04:31:05.304Z,10.02
2023-10-25T04:33:33.437Z,10.08
2023-10-25T04:36:01.438Z,10.15
2023-10-25T04:38:29.393Z,10.12
2023-10-25T04:40:57.865Z,9.91
2023-10-25T04:43:25.913Z,9.94
2023-10-25T04:45:54.032Z,10.03
2023-10-25T04:48:23.568Z,10.12
2023-10-25T04:50:51.426Z,10.08
2023-10-25T04:53:19.527Z,10.09
2023-10-25T04:55:47.740Z,10.25
2023-10-25T04:58:16.091Z,10.30
2023-10-25T05:00:44.200Z,10.32
2023-10-25T05:03:13.116Z,10.23
2023-10-25T05:05:42.841Z,10.19
2023-10-25T05:08:12.049Z,10.12
2023-10-25T05:10:40.248Z,10.28
2023-10-25T05:13:08.830Z,10.28
2023-10-25T05:15:37.411Z,10.29
2023-10-25T05:18:06.275Z,10.20
2023-10-25T05:20:35.066Z,10.36
2023-10-25T05:23:05.527Z,10.32
2023-10-25T05:25:34.331Z,10.40
2023-10-25T05:28:02.763Z,10.33
2023-10-25T05:30:31.455Z,10.45
2023-10-25T05:33:02.770Z,10.53
2023-10-25T05:35:31.646Z,10.52
2023-10-25T05:38:00.456Z,10.49
2023-10-25T05:40:30.671Z,10.49
2023-10-25T05:43:00.967Z,10.52
2023-10-25T05:45:28.912Z,10.63
2023-10-25T05:47:57.358Z,10.59
2023-10-25T05:50:25.826Z,10.59
2023-10-25T05:52:54.567Z,10.64
2023-10-25T05:55:23.065Z,10.64
2023-10-25T05:57:53.066Z,10.67
2023-10-25T06:00:22.190Z,10.69
2023-10-25T06:02:52.475Z,10.71
2023-10-25T06:05:20.785Z,10.67
2023-10-25T06:07:49.338Z,10.60
2023-10-25T06:10:17.944Z,10.63
2023-10-25T06:12:46.726Z,10.69
2023-10-25T06:15:16.283Z,10.74
2023-10-25T06:17:44.289Z,10.67
2023-10-25T06:20:14.349Z,10.79
2023-10-25T06:22:42.412Z,10.74
2023-10-25T06:25:13.762Z,10.79
2023-10-25T06:27:42.297Z,10.79
2023-10-25T06:30:11.052Z,10.76
2023-10-25T06:32:42.351Z,10.74
2023-10-25T06:35:10.994Z,10.80
2023-10-25T06:37:39.360Z,10.77
2023-10-25T06:40:08.636Z,10.97
2023-10-25T06:42:37.450Z,10.87
2023-10-25T06:45:06.723Z,10.81
2023-10-25T06:47:34.972Z,10.83
2023-10-25T06:50:05.475Z,10.85
2023-10-25T06:52:33.956Z,10.91
2023-10-25T06:55:02.529Z,10.96
2023-10-25T06:57:31.165Z,10.99
2023-10-25T06:59:59.483Z,10.99
2023-10-25T07:02:40.407Z,11.01
2023-10-25T07:05:14.947Z,11.11
2023-10-25T07:07:45.359Z,11.18
2023-10-25T07:10:14.730Z,11.12
2023-10-25T07:12:43.016Z,11.06
2023-10-25T07:15:12.619Z,11.15
2023-10-25T07:17:41.096Z,11.10
2023-10-25T07:20:11.053Z,11.30
2023-10-25T07:22:40.508Z,11.32
2023-10-25T07:25:09.401Z,11.31
2023-10-25T07:27:38.239Z,11.24
2023-10-25T07:30:08.189Z,11.08
2023-10-25T07:32:36.943Z,11.07
2023-10-25T07:35:05.992Z,10.97
2023-10-25T07:37:33.968Z,10.94
2023-10-25T07:40:06.472Z,10.80
2023-10-25T07:42:34.420Z,10.66
2023-10-25T07:45:02.391Z,10.57
2023-10-25T07:47:30.382Z,10.53
2023-10-25T07:49:58.319Z,10.53
2023-10-25T07:52:26.778Z,10.43
2023-10-25T07:54:54.780Z,10.40
2023-10-25T07:57:58.312Z,10.38
2023-10-25T08:00:14.011Z,10.32
2023-10-25T08:02:41.917Z,10.33
2023-10-25T08:05:10.810Z,10.38
2023-10-25T08:07:38.781Z,10.36
2023-10-25T08:10:08.009Z,10.42
2023-10-25T08:12:37.722Z,10.55
2023-10-25T08:15:07.732Z,10.55
2023-10-25T08:17:36.333Z,10.63
2023-10-25T08:20:06.194Z,10.71
2023-10-25T08:22:35.246Z,10.80
2023-10-25T08:25:03.230Z,10.80
2023-10-25T08:27:31.436Z,10.94
2023-10-25T08:30:00.831Z,11.01
2023-10-25T08:32:28.789Z,11.00
2023-10-25T08:34:56.927Z,11.01
2023-10-25T08:37:24.875Z,10.91
2023-10-25T08:39:52.806Z,10.93
2023-10-25T08:42:21.303Z,10.87
2023-10-25T08:44:49.255Z,10.76
2023-10-25T08:47:19.757Z,10.83
2023-10-25T08:49:47.787Z,10.85
2023-10-25T08:52:21.174Z,10.87
2023-10-25T08:54:49.227Z,10.91
2023-10-25T08:57:19.678Z,10.80
2023-10-25T08:59:49.226Z,10.83
2023-10-25T09:02:18.567Z,10.79
2023-10-25T09:04:59.271Z,10.71
2023-10-25T09:07:31.020Z,10.69
2023-10-25T09:09:59.579Z,10.56
2023-10-25T09:12:27.827Z,10.60
2023-10-25T09:14:55.976Z,10.61
2023-10-25T09:17:25.246Z,10.64
2023-10-25T09:19:53.399Z,10.59
2023-10-25T09:22:22.974Z,10.59
2023-10-25T09:24:51.671Z,10.55
2023-10-25T09:27:21.980Z,10.49
2023-10-25T09:29:50.429Z,10.45
2023-10-25T09:32:20.471Z,10.45
2023-10-25T09:34:51.249Z,10.43
2023-10-25T09:37:19.219Z,10.43
2023-10-25T09:39:47.375Z,10.45
2023-10-25T09:42:19.321Z,10.45
2023-10-25T09:44:49.224Z,10.43
2023-10-25T09:47:18.754Z,10.50
2023-10-25T09:49:47.212Z,10.52
2023-10-25T09:52:20.934Z,10.55
2023-10-25T09:54:52.124Z,10.60
2023-10-25T09:57:20.337Z,10.61
2023-10-25T09:59:48.495Z,10.64
2023-10-25T10:02:25.405Z,10.61
2023-10-25T10:05:00.054Z,10.66
2023-10-25T10:07:37.588Z,10.67
2023-10-25T10:10:16.714Z,10.69
2023-10-25T10:12:44.647Z,10.76
2023-10-25T10:15:13.578Z,10.69
2023-10-25T10:17:45.329Z,10.64
2023-10-25T10:20:28.296Z,10.63
2023-10-25T10:23:07.983Z,10.66
2023-10-25T10:25:46.530Z,10.64
2023-10-25T10:28:15.388Z,10.66
2023-10-25T10:30:44.178Z,10.59
2023-10-25T10:33:14.323Z,10.56
2023-10-25T10:35:46.681Z,10.61
2023-10-25T10:38:16.127Z,10.66
2023-10-25T10:40:44.074Z,10.67
2023-10-25T10:43:12.161Z,10.66
2023-10-25T10:45:44.840Z,10.76
2023-10-25T10:48:15.746Z,10.77
2023-10-25T10:50:43.974Z,10.83
2023-10-25T10:53:11.998Z,10.89
2023-10-25T10:55:42.438Z,10.93
2023-10-25T10:58:11.320Z,10.87
2023-10-25T11:00:39.392Z,10.87
2023-10-25T11:03:10.114Z,10.89
2023-10-25T11:05:39.070Z,10.89
2023-10-25T11:08:12.331Z,10.84
2023-10-25T11:10:42.172Z,10.90
2023-10-25T11:13:10.375Z,10.87
2023-10-25T11:15:39.302Z,10.80
2023-10-25T11:18:08.430Z,10.80
2023-10-25T11:20:36.702Z,10.81
2023-10-25T11:23:05.109Z,10.83
2023-10-25T11:25:33.145Z,10.83
2023-10-25T11:28:02.606Z,10.81
2023-10-25T11:30:31.811Z,10.84
2023-10-25T11:32:59.960Z,10.83
2023-10-25T11:35:30.000Z,10.83
2023-10-25T11:38:00.046Z,10.89
2023-10-25T11:40:40.020Z,10.84
2023-10-25T11:43:09.894Z,10.85
2023-10-25T11:45:38.735Z,10.87
2023-10-25T11:48:08.007Z,10.81
2023-10-25T11:50:36.963Z,10.84
2023-10-25T11:53:04.962Z,10.91
2023-10-25T11:55:33.052Z,10.94
2023-10-25T11:58:02.985Z,10.90
2023-10-25T12:00:32.697Z,10.97
2023-10-25T12:03:00.621Z,10.85
2023-10-25T12:05:28.623Z,10.89
2023-10-25T12:07:56.582Z,10.87
2023-10-25T12:10:25.252Z,10.90
2023-10-25T12:12:53.185Z,10.90
2023-10-25T12:15:21.609Z,10.90
2023-10-25T12:17:51.025Z,10.91
2023-10-25T12:20:27.663Z,10.89
2023-10-25T12:22:57.644Z,10.89
2023-10-25T12:25:25.961Z,10.87
2023-10-25T12:27:53.935Z,10.94
2023-10-25T12:30:21.910Z,10.94
2023-10-25T12:32:52.567Z,10.93
2023-10-25T12:35:22.190Z,10.89
2023-10-25T12:37:50.085Z,10.89
2023-10-25T12:40:18.830Z,10.90
2023-10-25T12:42:46.828Z,10.80
2023-10-25T12:45:14.793Z,10.84
2023-10-25T12:47:42.817Z,10.79
2023-10-25T12:50:12.627Z,10.79
2023-10-25T12:52:40.524Z,10.83
2023-10-25T12:55:09.032Z,10.83
2023-10-25T12:57:37.196Z,10.91
2023-10-25T13:00:06.713Z,10.94
2023-10-25T13:02:34.719Z,10.94
2023-10-25T13:05:03.524Z,11.04
2023-10-25T13:07:32.811Z,11.04
2023-10-25T13:10:00.677Z,11.04
2023-10-25T13:12:28.907Z,11.07
2023-10-25T13:14:57.138Z,11.04
2023-10-25T13:17:25.162Z,11.07
2023-10-25T13:19:53.043Z,11.14
2023-10-25T13:22:23.470Z,11.15
2023-10-25T13:24:53.357Z,11.07
2023-10-25T13:27:21.227Z,11.00
2023-10-25T13:29:49.515Z,10.91
2023-10-25T13:32:17.469Z,10.93
2023-10-25T13:34:45.764Z,10.91
2023-10-25T13:37:13.881Z,10.91
2023-10-25T13:39:42.510Z,10.93
2023-10-25T13:42:12.657Z,10.91
2023-10-25T13:44:40.580Z,10.84
2023-10-25T13:47:10.420Z,10.81
2023-10-25T13:49:38.376Z,10.80
2023-10-25T13:52:07.321Z,10.85
2023-10-25T13:54:35.348Z,10.85
2023-10-25T13:57:03.938Z,10.83
2023-10-25T13:59:33.377Z,10.84
2023-10-25T14:02:01.170Z,10.91
2023-10-25T14:04:29.129Z,10.93
2023-10-25T14:06:57.100Z,11.00
2023-10-25T14:09:25.559Z,11.00
2023-10-25T14:11:55.400Z,10.99
2023-10-25T14:14:23.959Z,10.89
2023-10-25T14:16:53.237Z,11.00
2023-10-25T14:19:22.283Z,10.96
2023-10-25T14:21:50.494Z,10.91
2023-10-25T14:24:20.092Z,10.97
2023-10-25T14:26:48.905Z,11.08
2023-10-25T14:29:17.736Z,11.07
2023-10-25T14:31:45.820Z,11.18
2023-10-25T14:34:16.076Z,11.22
2023-10-25T14:36:45.483Z,11.21
2023-10-25T14:39:14.203Z,11.27
2023-10-25T14:41:42.480Z,11.28
2023-10-25T14:44:10.442Z,11.36
2023-10-25T14:46:38.571Z,11.49
2023-10-25T14:49:08.936Z,11.78
2023-10-25T14:51:39.884Z,12.07
2023-10-25T14:54:07.973Z,12.27
2023-10-25T14:56:36.785Z,12.41
2023-10-25T14:59:04.901Z,12.43
2023-10-25T15:01:32.923Z,12.50
2023-10-25T15:04:00.993Z,12.47
2023-10-25T15:06:29.858Z,12.43
2023-10-25T15:08:59.396Z,12.31
2023-10-25T15:11:27.585Z,12.22
2023-10-25T15:13:55.698Z,12.17
2023-10-25T15:16:23.858Z,12.12
2023-10-25T15:18:51.939Z,12.03
2023-10-25T15:21:21.876Z,12.00
2023-10-25T15:23:50.686Z,12.00
2023-10-25T15:26:20.179Z,12.03
2023-10-25T15:28:48.074Z,11.99
2023-10-25T15:31:20.964Z,12.06
2023-10-25T15:33:49.149Z,11.99
2023-10-25T15:36:17.146Z,11.99
2023-10-25T15:38:48.265Z,12.16
2023-10-25T15:41:25.287Z,12.36
2023-10-25T15:43:54.651Z,12.47
2023-10-25T15:46:28.123Z,12.48
2023-10-25T15:48:57.447Z,12.55
2023-10-25T15:51:25.215Z,12.60
2023-10-25T15:53:54.975Z,12.60
2023-10-25T15:56:24.501Z,12.54
2023-10-25T15:58:52.512Z,12.48
2023-10-25T16:01:31.512Z,12.36
2023-10-25T16:04:02.137Z,12.30
2023-10-25T16:06:31.283Z,12.23
2023-10-25T16:08:59.452Z,12.19
2023-10-25T16:11:29.058Z,12.16
2023-10-25T16:13:57.074Z,12.13
2023-10-25T16:16:25.044Z,12.02
2023-10-25T16:18:53.162Z,11.99
2023-10-25T16:21:21.200Z,11.96
2023-10-25T16:23:50.168Z,11.92
2023-10-25T16:26:18.637Z,11.85
2023-10-25T16:28:48.357Z,11.81
2023-10-25T16:31:16.346Z,11.78
2023-10-25T16:33:44.937Z,11.76
2023-10-25T16:36:15.325Z,11.69
2023-10-25T16:38:43.754Z,11.66
2023-10-25T16:41:14.520Z,11.61
2023-10-25T16:43:42.827Z,11.54
2023-10-25T16:46:12.249Z,11.57
2023-10-25T16:51:29.955Z,11.51
2023-10-25T16:53:58.011Z,11.42
2023-10-25T16:56:26.155Z,11.42
2023-10-25T16:58:55.518Z,11.42
2023-10-25T17:01:25.020Z,11.35
2023-10-25T17:03:53.043Z,11.34
2023-10-25T17:06:21.903Z,11.32
2023-10-25T17:08:50.166Z,11.27
2023-10-25T17:11:17.329Z,11.20
2023-10-25T17:13:45.349Z,11.20
2023-10-25T17:16:14.579Z,11.15
2023-10-25T17:18:44.505Z,11.11
2023-10-25T17:21:14.553Z,11.04
2023-10-25T17:23:43.285Z,10.99
2023-10-25T17:26:12.405Z,10.97
2023-10-25T17:28:40.578Z,10.97
2023-10-25T17:31:08.644Z,10.89
2023-10-25T17:33:36.916Z,10.87
2023-10-25T17:36:08.522Z,10.89
2023-10-25T17:38:37.383Z,10.83
2023-10-25T17:41:06.227Z,10.80
2023-10-25T17:43:34.444Z,10.80
2023-10-25T17:48:34.283Z,10.79
2023-10-25T17:51:07.684Z,10.80
2023-10-25T17:53:36.168Z,10.81
2023-10-25T17:56:04.331Z,10.80
2023-10-25T17:58:32.443Z,10.79
2023-10-25T18:01:00.662Z,10.80
2023-10-25T18:03:28.879Z,10.77
2023-10-25T18:05:56.925Z,10.74
2023-10-25T18:08:26.316Z,10.71
2023-10-25T18:10:55.466Z,10.74
2023-10-25T18:13:24.750Z,10.73
2023-10-25T18:15:53.256Z,10.64
2023-10-25T18:18:22.245Z,10.64
2023-10-25T18:20:51.487Z,10.61
2023-10-25T18:23:22.685Z,10.57
2023-10-25T18:25:52.591Z,10.56
2023-10-25T18:28:20.852Z,10.53
2023-10-25T18:32:03.245Z,10.52
2023-10-25T18:33:41.612Z,10.46
2023-10-25T18:36:12.330Z,10.45
2023-10-25T18:38:41.372Z,10.48
2023-10-25T18:41:10.617Z,10.50
2023-10-25T18:43:38.527Z,10.53
2023-10-25T18:46:09.697Z,10.52
2023-10-25T18:48:37.784Z,10.52
2023-10-25T18:51:07.053Z,10.48
2023-10-25T18:53:35.155Z,10.48
2023-10-25T18:56:04.358Z,10.48
2023-10-25T18:58:34.653Z,10.43
2023-10-25T19:01:12.436Z,10.39
2023-10-25T19:03:40.558Z,10.39
2023-10-25T19:06:24.225Z,10.35
2023-10-25T19:08:55.097Z,10.36
2023-10-25T19:11:25.019Z,10.36
2023-10-25T19:13:55.143Z,10.33
2023-10-25T19:16:24.250Z,10.32
2023-10-25T19:18:52.337Z,10.30
2023-10-25T19:21:20.480Z,10.26
2023-10-25T19:23:50.561Z,10.26
2023-10-25T19:26:19.392Z,10.25
2023-10-25T19:28:48.197Z,10.22
2023-10-25T19:31:17.484Z,10.28
2023-10-25T19:33:45.424Z,10.26
2023-10-25T19:36:16.887Z,10.25
2023-10-25T19:38:44.934Z,10.26
2023-10-25T19:41:12.866Z,10.29
2023-10-25T19:43:40.817Z,10.25
2023-10-25T19:46:10.652Z,10.22
2023-10-25T19:48:39.963Z,10.20
2023-10-25T19:51:08.886Z,10.23
2023-10-25T19:53:36.820Z,10.25
2023-10-25T19:56:05.235Z,10.23
2023-10-25T19:58:33.091Z,10.25
2023-10-25T20:01:01.092Z,10.25
2023-10-25T20:03:29.099Z,10.23
2023-10-25T20:06:06.511Z,10.25
2023-10-25T20:08:34.644Z,10.23
2023-10-25T20:11:02.912Z,10.28
2023-10-25T20:13:30.937Z,10.29
2023-10-25T20:15:59.423Z,10.25
2023-10-25T20:18:27.366Z,10.29
2023-10-25T20:20:55.395Z,10.28
2023-10-25T20:23:24.605Z,10.25
2023-10-25T20:25:52.900Z,10.30
2023-10-25T20:28:21.483Z,10.30
2023-10-25T20:30:50.222Z,10.23
2023-10-25T20:33:18.715Z,10.25
2023-10-25T20:35:46.804Z,10.20
2023-10-25T20:38:15.060Z,10.22
2023-10-25T20:40:44.261Z,10.18
2023-10-25T20:43:12.315Z,10.16
2023-10-25T20:45:49.304Z,10.11
2023-10-25T20:48:17.292Z,10.11
2023-10-25T20:50:45.524Z,10.12
2023-10-25T20:53:13.424Z,10.11
2023-10-25T20:55:45.651Z,10.08
2023-10-25T20:58:13.546Z,10.09
2023-10-25T21:00:42.422Z,10.09
2023-10-25T21:03:10.561Z,10.11
2023-10-25T21:05:38.601Z,10.06
2023-10-25T21:08:07.974Z,10.05
2023-10-25T21:10:35.760Z,10.08
2023-10-25T21:13:05.181Z,10.05
2023-10-25T21:15:33.933Z,10.06
2023-10-25T21:18:01.877Z,10.05
2023-10-25T21:20:30.273Z,10.05
2023-10-25T21:22:58.130Z,10.06
2023-10-25T21:25:26.264Z,10.06
2023-10-25T21:27:54.105Z,10.03
2023-10-25T21:30:23.328Z,10.02
2023-10-25T21:32:51.586Z,10.06
2023-10-25T21:35:19.649Z,10.03
2023-10-25T21:37:47.605Z,9.99
2023-10-25T21:40:15.953Z,9.99
2023-10-25T21:42:43.888Z,10.02
2023-10-25T21:45:12.735Z,9.98
2023-10-25T21:47:42.266Z,9.97
2023-10-25T21:50:10.769Z,9.99
2023-10-25T21:52:38.859Z,9.92
2023-10-25T21:55:07.963Z,9.94
2023-10-25T21:59:44.637Z,9.94
2023-10-25T22:00:24.723Z,9.94
2023-10-25T22:02:54.009Z,9.95
2023-10-25T22:05:22.315Z,9.94
2023-10-25T22:07:50.245Z,9.94
2023-10-25T22:10:18.398Z,9.91
2023-10-25T22:12:46.467Z,9.94
2023-10-25T22:15:14.402Z,9.91
2023-10-25T22:17:43.656Z,9.95
2023-10-25T22:20:13.530Z,9.94
2023-10-25T22:22:41.716Z,9.91
2023-10-25T22:25:09.987Z,9.89
2023-10-25T22:27:38.268Z,9.92
2023-10-25T22:30:07.140Z,9.92
2023-10-25T22:32:35.198Z,9.91
2023-10-25T22:35:03.805Z,9.92
2023-10-25T22:37:33.400Z,9.92
2023-10-25T22:40:01.571Z,9.94
2023-10-25T22:42:29.577Z,9.92
2023-10-25T22:44:57.647Z,9.92
2023-10-25T22:47:25.710Z,9.94
2023-10-25T22:49:53.533Z,9.94
2023-10-25T22:52:21.574Z,9.92
2023-10-25T22:54:50.890Z,9.92
2023-10-25T22:57:18.899Z,9.94
2023-10-25T22:59:47.141Z,9.92
2023-10-25T23:02:15.018Z,9.92
2023-10-25T23:04:43.179Z,9.91
2023-10-25T23:07:11.398Z,9.94
2023-10-25T23:09:39.390Z,9.91
2023-10-25T23:12:09.544Z,9.89
2023-10-25T23:14:43.065Z,9.88
2023-10-25T23:17:11.113Z,9.88
2023-10-25T23:19:39.211Z,9.84
2023-10-25T23:22:07.046Z,9.84
2023-10-25T23:24:35.114Z,9.82
2023-10-25T23:27:03.007Z,9.82
2023-10-25T23:29:32.377Z,9.87
2023-10-25T23:32:00.286Z,9.79
2023-10-25T23:34:28.168Z,9.79
2023-10-25T23:36:56.444Z,9.81
2023-10-25T23:39:24.349Z,9.75
2023-10-25T23:41:52.441Z,9.79
2023-10-25T23:44:20.300Z,9.78
2023-10-25T23:46:49.656Z,9.75
2023-10-25T23:49:17.619Z,9.97
2023-10-25T23:51:45.633Z,10.19
2023-10-25T23:54:50.600Z,10.29
2023-10-25T23:57:04.103Z,10.18
2023-10-25T23:59:32.023Z,10.16
